Time;durP1;ratioP1;P1;durP2;ratioP2;P2;SDS_P1;SDS_P2;PMS_P1;PMS_P2;Temp;Humidity;BMP_temperature;BMP_pressure;BME280_temperature;BME280_humidity;BME280_pressure;Samples;Min_cycle;Max_cycle;Signal;HPM_P1;HPM_P2
2024/02/08 00:01:09;;;;;;;0.50;0.50;;;;;;;-2.56;88.59;98688.63;5105093;28;20020;-70
2024/02/08 00:03:35;;;;;;;1.30;1.02;;;;;;;-2.61;88.93;98682.59;5104463;28;20027;-70
2024/02/08 00:06:00;;;;;;;0.50;0.50;;;;;;;-2.56;88.93;98672.53;5105218;28;20145;-70
2024/02/08 00:08:25;;;;;;;0.60;0.60;;;;;;;-2.47;88.69;98679.44;5105342;28;20020;-70
2024/02/08 00:10:51;;;;;;;0.50;0.50;;;;;;;-2.45;88.87;98672.69;5086587;28;20444;-69
2024/02/08 00:13:17;;;;;;;0.50;0.50;;;;;;;-2.39;88.76;98677.88;5086662;28;20073;-70
2024/02/08 00:15:43;;;;;;;0.60;0.60;;;;;;;-2.35;88.80;98671.16;5086939;28;20020;-70
2024/02/08 00:18:08;;;;;;;0.68;0.68;;;;;;;-2.40;88.96;98673.63;5105082;28;20020;-70
2024/02/08 00:20:33;;;;;;;0.60;0.60;;;;;;;-2.35;89.26;98663.53;5104810;28;20484;-70
2024/02/08 00:22:59;;;;;;;0.60;0.60;;;;;;;-2.40;89.54;98664.34;5086664;28;20032;-69
2024/02/08 00:25:24;;;;;;;0.60;0.60;;;;;;;-2.42;90.00;98660.03;5086428;28;20084;-69
2024/02/08 00:27:52;;;;;;;0.50;0.50;;;;;;;-2.38;89.98;98662.66;5105005;28;20016;-70
2024/02/08 00:30:17;;;;;;;0.68;0.65;;;;;;;-2.37;90.24;98653.34;5086850;28;20111;-70
2024/02/08 00:32:48;;;;;;;0.60;0.60;;;;;;;-2.31;90.17;98657.66;5104869;28;20020;-70
2024/02/08 00:35:17;;;;;;;0.82;0.82;;;;;;;-2.27;90.08;98646.72;5104889;28;20495;-69
2024/02/08 00:37:49;;;;;;;4.80;2.25;;;;;;;-2.28;89.89;98643.31;5086786;28;20024;-70
2024/02/08 00:40:15;;;;;;;;;;;;;;;-2.10;89.95;98646.97;5086819;28;20016;-71
2024/02/08 00:42:41;;;;;;;0.68;0.68;;;;;;;-2.06;89.02;98638.53;5104879;28;19908;-70
2024/02/08 00:45:09;;;;;;;0.52;0.52;;;;;;;-2.03;88.86;98633.50;5104958;28;20043;-69
2024/02/08 00:47:34;;;;;;;0.50;0.50;;;;;;;-2.04;88.91;98631.78;5104804;28;20492;-69
2024/02/08 00:49:59;;;;;;;3.60;1.25;;;;;;;-2.15;89.50;98629.09;5086340;28;20034;-70
2024/02/08 00:52:25;;;;;;;0.50;0.50;;;;;;;-2.10;89.81;98625.75;5104813;28;20026;-70
2024/02/08 00:54:51;;;;;;;0.50;0.50;;;;;;;-2.17;90.15;98635.84;5104708;28;20430;-69
2024/02/08 00:57:16;;;;;;;0.50;0.50;;;;;;;-2.19;90.49;98629.03;5104597;28;20054;-70
2024/02/08 00:59:41;;;;;;;0.55;0.55;;;;;;;-2.21;90.79;98626.47;5104651;28;20016;-70
2024/02/08 01:02:07;;;;;;;0.60;0.60;;;;;;;-2.10;90.52;98616.44;5104813;28;20016;-70
2024/02/08 01:04:33;;;;;;;0.60;0.60;;;;;;;-2.12;90.83;98623.19;5086498;28;20016;-71
2024/02/08 01:06:59;;;;;;;0.70;0.70;;;;;;;-2.11;90.82;98604.56;5104561;28;20048;-71
2024/02/08 01:09:28;;;;;;;0.60;0.60;;;;;;;-2.05;90.75;98614.84;5086275;28;20024;-70
2024/02/08 01:11:54;;;;;;;0.95;0.73;;;;;;;-2.06;90.89;98604.63;5104812;28;20100;-70
2024/02/08 01:14:21;;;;;;;0.65;0.65;;;;;;;-2.05;90.96;98604.66;5104630;28;20032;-70
2024/02/08 01:16:50;;;;;;;0.50;0.50;;;;;;;-2.01;90.88;98600.44;5107999;28;20073;-70
2024/02/08 01:19:16;;;;;;;0.50;0.50;;;;;;;-1.97;90.67;98608.97;5108448;28;20027;-71
2024/02/08 01:21:43;;;;;;;0.50;0.50;;;;;;;-2.05;90.85;98597.03;5107881;28;20044;-70
2024/02/08 01:24:09;;;;;;;0.50;0.50;;;;;;;-2.03;90.68;98594.50;5108246;28;20020;-70
2024/02/08 01:26:34;;;;;;;0.60;0.60;;;;;;;-1.93;90.35;98591.22;5108089;28;20073;-71
2024/02/08 01:29:05;;;;;;;1.38;1.08;;;;;;;-1.94;90.64;98589.53;5089815;28;20031;-71
2024/02/08 01:31:32;;;;;;;0.50;0.50;;;;;;;-1.93;90.52;98582.78;5108069;28;20020;-70
2024/02/08 01:33:57;;;;;;;0.50;0.50;;;;;;;-1.96;90.64;98590.34;5108073;28;20020;-70
2024/02/08 01:36:23;;;;;;;0.52;0.52;;;;;;;-1.86;90.27;98589.63;5089783;28;20468;-70
2024/02/08 01:38:51;;;;;;;0.50;0.50;;;;;;;-1.94;90.68;98587.00;5108057;28;20024;-70
2024/02/08 01:41:17;;;;;;;0.55;0.55;;;;;;;-1.95;90.93;98580.19;5107655;28;20503;-70
2024/02/08 01:43:42;;;;;;;1.58;1.40;;;;;;;-1.87;90.80;98587.94;5089419;28;20028;-71
2024/02/08 01:46:09;;;;;;;0.60;0.60;;;;;;;-1.87;90.88;98575.22;5089670;28;20030;-70
2024/02/08 01:48:35;;;;;;;0.50;0.50;;;;;;;-1.85;91.24;98575.22;5107521;28;20055;-70
2024/02/08 01:51:02;;;;;;;1.13;1.05;;;;;;;-1.86;91.21;98584.53;5107442;28;20024;-71
2024/02/08 01:53:28;;;;;;;0.63;0.63;;;;;;;-1.78;90.94;98577.00;5089984;28;20471;-71
2024/02/08 01:55:58;;;;;;;0.68;0.68;;;;;;;-1.79;91.25;98578.69;5089130;28;20024;-71
2024/02/08 01:58:24;;;;;;;0.50;0.50;;;;;;;-1.75;91.04;98577.03;5089107;28;20111;-70
2024/02/08 02:00:52;;;;;;;0.60;0.60;;;;;;;-1.69;91.27;98579.66;5106637;28;20476;-69
2024/02/08 02:03:19;;;;;;;0.50;0.50;;;;;;;-1.55;91.04;98584.88;5088405;28;20433;-70
2024/02/08 02:05:48;;;;;;;1.80;0.90;;;;;;;-1.72;91.03;98578.75;5089194;28;20024;-70
2024/02/08 02:08:21;;;;;;;0.57;0.57;;;;;;;-1.75;91.61;98577.03;5107386;28;20126;-70
2024/02/08 02:11:05;;;;;;;0.50;0.50;;;;;;;-1.75;91.79;98579.59;5088811;28;20020;-71
2024/02/08 02:13:33;;;;;;;0.50;0.50;;;;;;;-1.74;92.10;98568.56;5089270;28;20034;-71
2024/02/08 02:15:58;;;;;;;0.50;0.50;;;;;;;-1.70;91.53;98575.41;5088995;28;20049;-69
2024/02/08 02:18:24;;;;;;;0.50;0.50;;;;;;;-1.71;91.86;98570.31;5088978;28;20032;-70
2024/02/08 02:20:50;;;;;;;0.50;0.50;;;;;;;-1.76;92.05;98576.16;5106997;28;20063;-70
2024/02/08 02:23:18;;;;;;;0.50;0.50;;;;;;;-1.71;92.24;98572.84;5088917;28;20084;-70
2024/02/08 02:25:48;;;;;;;0.50;0.50;;;;;;;-1.64;92.00;98575.47;5107031;28;20012;-70
2024/02/08 02:28:15;;;;;;;0.50;0.50;;;;;;;-1.62;92.00;98584.00;5106042;28;20469;-70
2024/02/08 02:30:44;;;;;;;0.50;0.50;;;;;;;-1.53;91.01;98582.38;5106923;28;20088;-69
2024/02/08 02:33:14;;;;;;;0.50;0.50;;;;;;;-1.73;91.51;98554.16;5088755;28;20031;-70
2024/02/08 02:35:48;;;;;;;1.85;1.75;;;;;;;-1.63;91.82;98573.78;5106854;28;20500;-70
2024/02/08 02:38:17;;;;;;;13.45;1.70;;;;;;;-1.67;92.04;98583.06;5106504;28;20023;-70
2024/02/08 02:40:46;;;;;;;1.20;1.15;;;;;;;-1.65;91.95;98580.56;5088312;28;20119;-70
2024/02/08 02:43:13;;;;;;;0.50;0.50;;;;;;;-1.67;92.18;98579.66;5106685;28;20052;-72
2024/02/08 02:45:39;;;;;;;0.50;0.50;;;;;;;-1.70;92.15;98574.53;5106681;28;20487;-71
2024/02/08 02:48:05;;;;;;;0.68;0.50;;;;;;;-1.60;91.55;98576.38;5106466;28;20027;-71
2024/02/08 02:50:32;;;;;;;0.65;0.65;;;;;;;-1.65;91.55;98576.31;5088100;28;20020;-69
2024/02/08 02:52:58;;;;;;;2.30;1.42;;;;;;;-1.68;91.89;98583.06;5088463;28;20049;-70
2024/02/08 02:55:23;;;;;;;0.90;0.90;;;;;;;-1.70;92.02;98580.50;5107226;28;20032;-70
2024/02/08 02:57:49;;;;;;;0.50;0.50;;;;;;;-1.65;91.82;98583.09;5089634;28;20139;-71
2024/02/08 03:00:33;;;;;;;0.50;0.50;;;;;;;-1.68;91.80;98580.50;5107435;28;20020;-71
2024/02/08 03:03:07;;;;;;;1.25;1.25;;;;;;;-1.62;91.44;98583.13;5106342;28;20084;-70
2024/02/08 03:05:37;;;;;;;3.42;2.50;;;;;;;-1.66;91.72;98587.31;5087382;28;20024;-72
2024/02/08 03:08:06;;;;;;;0.60;0.60;;;;;;;-1.65;91.25;98578.88;5106260;28;20052;-71
2024/02/08 03:10:33;;;;;;;1.60;1.25;;;;;;;-1.62;91.21;98593.31;5105932;28;20028;-70
2024/02/08 03:12:59;;;;;;;0.50;0.50;;;;;;;-1.68;91.43;98578.84;5106065;28;20551;-70
2024/02/08 03:15:24;;;;;;;0.50;0.50;;;;;;;-1.67;91.74;98577.97;5106052;28;20075;-69
2024/02/08 03:17:50;;;;;;;0.60;0.60;;;;;;;-1.68;91.45;98570.34;5105919;28;20020;-70
2024/02/08 03:20:35;;;;;;;0.50;0.50;;;;;;;-1.66;91.38;98587.31;5105432;28;20039;-70
2024/02/08 03:23:01;;;;;;;0.50;0.50;;;;;;;-1.69;91.56;98587.28;5105871;28;20491;-71
2024/02/08 03:25:26;;;;;;;0.52;0.52;;;;;;;-1.65;91.89;98585.63;5105716;28;20028;-70
2024/02/08 03:27:52;;;;;;;0.50;0.50;;;;;;;-1.67;91.54;98584.75;5105921;28;20076;-70
2024/02/08 03:30:19;;;;;;;0.60;0.60;;;;;;;-1.68;91.65;98590.69;5105848;28;20020;-70
2024/02/08 03:32:49;;;;;;;0.50;0.50;;;;;;;-1.71;91.70;98586.41;5087461;28;20020;-70
2024/02/08 03:35:20;;;;;;;0.50;0.50;;;;;;;-1.75;91.74;98574.50;5105594;28;20070;-70
2024/02/08 03:37:48;;;;;;;0.50;0.50;;;;;;;-1.70;91.81;98585.59;5105816;28;20031;-70
2024/02/08 03:40:20;;;;;;;0.40;0.40;;;;;;;-1.73;91.71;98571.97;5105458;28;20023;-71
2024/02/08 03:42:46;;;;;;;0.50;0.50;;;;;;;-1.76;91.66;98571.09;5087545;28;20031;-71
2024/02/08 03:45:13;;;;;;;0.50;0.50;;;;;;;-1.72;91.66;98579.63;5105722;28;20499;-70
2024/02/08 03:47:39;;;;;;;0.88;0.88;;;;;;;-1.76;91.51;98567.72;5105279;28;20099;-69
2024/02/08 03:50:05;;;;;;;1.25;1.15;;;;;;;-1.73;91.68;98575.38;5087033;28;20021;-69
2024/02/08 03:52:31;;;;;;;0.60;0.60;;;;;;;-1.75;91.48;98567.72;5105316;28;20020;-70
2024/02/08 03:54:57;;;;;;;0.50;0.50;;;;;;;-1.79;91.33;98567.66;5086957;28;20027;-69
2024/02/08 03:57:23;;;;;;;0.60;0.60;;;;;;;-1.80;91.40;98579.53;5106817;28;20059;-70
2024/02/08 03:59:52;;;;;;;0.60;0.60;;;;;;;-1.81;91.52;98582.91;5088380;28;20083;-71
2024/02/08 04:02:21;;;;;;;0.70;0.70;;;;;;;-1.83;91.50;98581.16;5088162;28;20043;-71
2024/02/08 04:04:50;;;;;;;0.57;0.57;;;;;;;-1.85;91.49;98577.78;5105181;28;20020;-71
2024/02/08 04:07:20;;;;;;;0.50;0.50;;;;;;;-1.82;91.40;98590.53;5105353;28;20034;-70
2024/02/08 04:09:55;;;;;;;2.65;0.82;;;;;;;-1.87;91.21;98595.56;5104927;28;20111;-70
2024/02/08 04:53:44;;;;;;;0.50;0.50;;;;;;;-2.83;89.86;98640.75;5108741;28;20109;-65
2024/02/08 04:56:11;;;;;;;0.60;0.60;;;;;;;-2.85;89.91;98648.34;5090463;28;20175;-66
2024/02/08 04:58:41;;;;;;;1.13;1.13;;;;;;;-2.87;90.29;98648.31;5090516;28;20088;-66
2024/02/08 05:01:10;;;;;;;0.60;0.60;;;;;;;-2.88;89.76;98651.69;5108576;28;20016;-65
2024/02/08 05:03:37;;;;;;;0.70;0.70;;;;;;;-2.91;89.83;98651.63;5108765;28;20041;-65
2024/02/08 05:06:11;;;;;;;0.50;0.50;;;;;;;-2.93;89.96;98658.34;5108474;28;20341;-67
2024/02/08 05:08:39;;;;;;;0.50;0.50;;;;;;;-2.90;89.99;98655.88;5108600;28;20035;-65
2024/02/08 05:11:09;;;;;;;0.60;0.60;;;;;;;-2.96;90.00;98654.91;5089744;28;20031;-64
2024/02/08 05:13:41;;;;;;;0.50;0.50;;;;;;;-2.92;89.71;98656.66;5108577;28;20024;-66
2024/02/08 05:16:16;;;;;;;0.90;0.90;;;;;;;-2.95;89.73;98656.59;5108550;28;20069;-65
2024/02/08 05:18:45;;;;;;;0.65;0.65;;;;;;;-2.99;89.58;98648.09;5108494;28;20020;-65
2024/02/08 05:21:12;;;;;;;1.85;0.88;;;;;;;-2.96;89.65;98657.44;5108055;28;20044;-65
2024/02/08 05:23:41;;;;;;;0.60;0.60;;;;;;;-2.97;89.45;98664.19;5108510;28;20032;-66
2024/02/08 05:26:18;;;;;;;1.67;1.58;;;;;;;-3.02;89.40;98674.25;5108194;28;20051;-66
2024/02/08 05:28:47;;;;;;;0.57;0.57;;;;;;;-3.06;89.51;98669.97;5108276;28;20024;-65
2024/02/08 05:31:13;;;;;;;0.80;0.80;;;;;;;-3.08;89.40;98676.69;5107752;28;20024;-66
2024/02/08 05:33:42;;;;;;;0.70;0.70;;;;;;;-3.16;89.38;98670.59;5107619;28;20418;-66
2024/02/08 05:36:08;;;;;;;0.80;0.77;;;;;;;-3.12;89.31;98678.34;5108091;28;20027;-66
2024/02/08 05:38:37;;;;;;;0.65;0.65;;;;;;;-3.19;89.10;98681.56;5108045;28;20020;-67
2024/02/08 05:41:05;;;;;;;0.60;0.60;;;;;;;-3.24;89.37;98673.88;5089262;28;20016;-65
2024/02/08 05:43:41;;;;;;;0.50;0.50;;;;;;;-3.22;89.29;98688.25;5108250;28;20078;-66
2024/02/08 05:46:09;;;;;;;0.60;0.60;;;;;;;-3.25;89.17;98689.94;5090801;28;20028;-66
2024/02/08 05:48:39;;;;;;;0.50;0.50;;;;;;;-3.26;89.16;98687.38;5108989;28;20103;-66
2024/02/08 05:51:11;;;;;;;0.60;0.60;;;;;;;-3.29;88.95;98683.06;5107514;28;20028;-67
2024/02/08 05:53:40;;;;;;;;;;;;;;;-3.25;89.03;98691.59;5090258;28;20031;-66
2024/02/08 05:56:08;;;;;;;2.92;1.13;;;;;;;-3.34;88.69;98691.44;5107382;28;19908;-71
2024/02/08 05:58:37;;;;;;;0.60;0.60;;;;;;;-3.36;89.10;98694.81;5107591;28;20024;-70
2024/02/08 06:01:16;;;;;;;1.15;0.93;;;;;;;-3.35;89.00;98693.09;5087658;28;20111;-70
2024/02/08 06:03:46;;;;;;;0.50;0.50;;;;;;;-3.32;88.97;98694.88;5088499;28;20281;-70
2024/02/08 06:06:26;;;;;;;0.60;0.60;;;;;;;-3.32;89.08;98703.31;5107811;28;20044;-70
2024/02/08 06:08:56;;;;;;;0.50;0.50;;;;;;;-3.32;89.14;98710.94;5090514;28;20431;-71
2024/02/08 06:11:36;;;;;;;0.60;0.60;;;;;;;-3.30;89.10;98711.81;5089602;28;20031;-70
2024/02/08 06:14:12;;;;;;;0.57;0.57;;;;;;;-3.36;89.01;98702.41;5107767;28;20031;-70
2024/02/08 06:16:46;;;;;;;0.60;0.60;;;;;;;-3.28;88.97;98699.16;5089268;28;20053;-69
2024/02/08 06:19:17;;;;;;;0.60;0.60;;;;;;;-3.28;89.04;98697.50;5107519;28;20023;-69
2024/02/08 06:21:45;;;;;;;0.50;0.50;;;;;;;-3.22;88.93;98701.81;5106940;28;20055;-69
2024/02/08 06:24:30;;;;;;;1.42;1.35;;;;;;;-3.24;88.97;98696.72;5107058;28;20035;-70
2024/02/08 06:27:01;;;;;;;1.33;1.23;;;;;;;-3.25;88.81;98689.06;5107268;28;20032;-70
2024/02/08 06:29:38;;;;;;;0.60;0.60;;;;;;;-3.23;89.03;98695.03;5107152;28;20024;-70
2024/02/08 06:32:23;;;;;;;0.50;0.50;;;;;;;-3.25;88.77;98702.63;5106925;28;20024;-70
2024/02/08 06:35:07;;;;;;;0.52;0.52;;;;;;;-3.36;88.95;98688.88;5088792;28;20039;-70
2024/02/08 06:37:46;;;;;;;0.60;0.60;;;;;;;-3.38;88.97;98703.19;5107115;28;20020;-70
2024/02/08 06:40:22;;;;;;;0.60;0.60;;;;;;;-3.43;89.08;98707.31;5088865;28;20083;-69
2024/02/08 06:46:09;;;;;;;1.60;1.50;;;;;;;-3.49;89.25;98719.06;5106699;28;20443;-71
2024/02/08 07:37:13;;;;;;;1.25;1.15;;;;;;;-3.48;88.99;98730.06;5106887;28;20077;-70
2024/02/08 07:38:53;;;;;;;2.58;1.50;;;;;;;-3.59;89.45;98795.78;5043390;28;20052;-72
2024/02/08 07:41:08;;;;;;;1.60;1.50;;;;;;;-3.44;89.95;98799.50;5072153;28;20468;-70
2024/02/08 07:43:36;;;;;;;0.75;0.75;;;;;;;-3.22;90.00;98803.34;5106036;28;20028;-70
2024/02/08 07:46:05;;;;;;;0.60;0.60;;;;;;;-3.13;90.08;98807.78;5087596;28;20051;-71
2024/02/08 07:48:43;;;;;;;0.60;0.60;;;;;;;-3.13;89.82;98808.63;5105788;28;20047;-70
2024/02/08 07:51:09;;;;;;;0.60;0.60;;;;;;;-3.21;89.61;98807.59;5087604;28;20443;-70
2024/02/08 07:53:51;;;;;;;0.60;0.60;;;;;;;-3.24;89.68;98810.94;5087519;28;20056;-69
2024/02/08 07:59:03;;;;;;;0.50;0.50;;;;;;;-3.36;89.57;98806.47;5105769;28;20042;-70
2024/02/08 08:01:32;;;;;;;0.60;0.60;;;;;;;-3.23;90.15;98811.81;5105510;28;20030;-70
2024/02/08 08:03:58;;;;;;;0.60;0.60;;;;;;;-2.79;91.19;98813.53;5087553;28;20027;-69
2024/02/08 08:06:23;;;;;;;0.60;0.60;;;;;;;-2.50;91.30;98809.84;5086852;28;20024;-70
2024/02/08 08:08:57;;;;;;;0.50;0.50;;;;;;;-2.25;91.04;98811.16;5087153;28;20027;-70
2024/02/08 08:11:25;;;;;;;0.50;0.50;;;;;;;-1.90;91.03;98816.84;5105096;28;20156;-69
2024/02/08 08:18:57;;;;;;;0.50;0.50;;;;;;;-1.68;88.82;98822.25;5107492;22;20056;-66
2024/02/08 08:21:27;;;;;;;0.68;0.68;;;;;;;-1.79;88.45;98825.47;5077444;23;20052;-69
2024/02/08 08:24:02;;;;;;;1.40;1.30;;;;;;;-1.83;88.19;98818.63;5083949;28;20031;-69
2024/02/08 08:26:39;;;;;;;5.32;1.20;;;;;;;-1.55;88.99;98823.31;5083205;28;20031;-69
2024/02/08 08:29:12;;;;;;;0.50;0.50;;;;;;;-1.40;88.74;98827.75;5083826;28;20044;-68
2024/02/08 08:31:51;;;;;;;0.55;0.55;;;;;;;-1.20;88.55;98829.75;5066870;28;20479;-69
2024/02/08 08:36:57;;;;;;;0.50;0.50;;;;;;;-1.06;88.12;98833.34;5085483;28;20025;-69
2024/02/08 08:42:07;;;;;;;0.70;0.70;;;;;;;-0.48;87.17;98828.06;5087220;22;20056;-64
2024/02/08 08:44:35;;;;;;;1.13;1.13;;;;;;;-0.17;85.33;98831.78;5043890;28;20026;-66
2024/02/08 08:47:01;;;;;;;1.50;1.23;;;;;;;0.27;84.47;98833.88;5025799;28;20033;-68
2024/02/08 08:49:29;;;;;;;0.50;0.50;;;;;;;0.57;81.34;98832.38;5044720;28;20025;-66
2024/02/08 08:51:58;;;;;;;1.85;1.30;;;;;;;0.84;79.67;98841.94;5044771;28;20029;-67
2024/02/08 08:54:29;;;;;;;1.05;1.05;;;;;;;1.20;79.29;98834.44;5044972;28;20104;-66
2024/02/08 08:56:56;;;;;;;0.57;0.57;;;;;;;1.65;77.89;98840.53;5027032;28;20025;-67
2024/02/08 08:59:25;;;;;;;0.60;0.60;;;;;;;1.86;77.16;98829.50;5083295;23;20158;-67
2024/02/08 09:01:51;;;;;;;0.60;0.60;;;;;;;2.19;77.22;98842.38;5104429;28;20024;-67
2024/02/08 09:04:25;;;;;;;0.55;0.55;;;;;;;2.63;76.32;98843.19;5104929;28;20032;-67
2024/02/08 09:06:52;;;;;;;0.50;0.50;;;;;;;2.70;73.97;98837.19;5086895;28;20028;-67
2024/02/08 09:09:28;;;;;;;0.93;0.93;;;;;;;2.50;73.28;98844.91;5105000;28;20026;-66
2024/02/08 09:12:00;;;;;;;1.50;1.40;;;;;;;2.28;73.17;98850.03;5104545;28;20044;-68
2024/02/08 09:14:32;;;;;;;0.60;0.60;;;;;;;2.06;73.35;98851.72;5105016;28;20107;-66
2024/02/08 09:16:58;;;;;;;0.60;0.60;;;;;;;2.04;75.07;98848.31;5104682;28;20026;-67
2024/02/08 09:19:29;;;;;;;1.10;1.05;;;;;;;2.12;76.47;98850.88;5086620;28;20094;-66
2024/02/08 09:22:02;;;;;;;1.77;1.00;;;;;;;2.22;77.02;98845.75;5104779;28;20040;-67
2024/02/08 09:24:28;;;;;;;1.23;1.17;;;;;;;2.41;78.97;98853.44;5104910;28;20031;-67
2024/02/08 09:29:39;;;;;;;9.85;1.05;;;;;;;3.24;79.60;98847.31;5103452;28;20173;-66
2024/02/08 09:32:52;;;;;;;0.75;0.70;;;;;;;3.34;79.99;98834.44;5104225;28;20013;-66
2024/02/08 09:34:53;;;;;;;2.65;1.85;;;;;;;3.71;81.52;98842.81;5093744;28;20039;-68
2024/02/08 09:37:18;;;;;;;0.82;0.82;;;;;;;3.78;80.38;98836.78;5107417;28;20028;-68
2024/02/08 09:42:20;;;;;;;2.33;1.00;;;;;;;3.61;80.71;98851.44;5108366;28;20035;-68
2024/02/08 09:44:49;;;;;;;0.50;0.50;;;;;;;3.44;79.94;98849.78;5089996;28;20020;-68
2024/02/08 09:47:25;;;;;;;0.70;0.70;;;;;;;3.15;79.88;98846.47;5090045;28;20039;-68
2024/02/08 09:50:00;;;;;;;0.90;0.90;;;;;;;3.12;80.71;98849.06;5089966;28;20024;-69
2024/02/08 09:52:30;;;;;;;0.70;0.70;;;;;;;3.07;80.50;98854.19;5089827;28;20058;-69
2024/02/08 09:55:06;;;;;;;1.50;1.20;;;;;;;2.99;81.30;98857.66;5108199;28;20024;-69
2024/02/08 09:57:45;;;;;;;1.98;1.42;;;;;;;3.00;82.11;98869.59;5108186;28;20114;-70
2024/02/08 10:00:34;;;;;;;1.63;1.52;;;;;;;3.25;84.38;98867.81;5089177;28;20024;-71
2024/02/08 10:03:03;;;;;;;1.20;1.10;;;;;;;3.61;84.89;98866.84;5107025;28;20031;-73
2024/02/08 10:08:27;;;;;;;1.05;0.95;;;;;;;4.23;85.20;98863.91;5107904;28;20083;-74
2024/02/08 10:13:55;;;;;;;3.78;3.42;;;;;;;4.47;79.87;98865.41;5107840;28;20038;-71
2024/02/08 10:16:42;;;;;;;4.05;1.20;;;;;;;4.68;80.18;98863.50;5107901;28;20024;-71
2024/02/08 10:19:28;;;;;;;2.13;1.30;;;;;;;5.10;79.41;98871.69;5107912;28;20028;-70
2024/02/08 10:21:57;;;;;;;3.00;1.70;;;;;;;5.61;78.82;98865.94;5107738;28;20031;-68
2024/02/08 10:24:44;;;;;;;2.15;1.70;;;;;;;6.23;79.24;98864.22;5089406;28;20020;-69
2024/02/08 10:27:19;;;;;;;0.70;0.70;;;;;;;6.71;76.36;98861.75;5107261;28;20055;-69
2024/02/08 10:29:50;;;;;;;0.88;0.82;;;;;;;6.10;71.63;98852.44;5089373;28;20028;-70
2024/02/08 10:32:18;;;;;;;1.80;1.25;;;;;;;5.25;70.41;98868.09;5107404;28;20024;-72
2024/02/08 10:34:45;;;;;;;7.10;1.92;;;;;;;4.44;71.85;98865.41;5107273;28;20023;-72
2024/02/08 10:37:46;;;;;;;0.98;0.88;;;;;;;3.82;72.66;98878.69;5107510;28;20082;-72
2024/02/08 10:40:00;;;;;;;0.63;0.63;;;;;;;3.40;73.67;98877.19;5107200;28;20024;-72
2024/02/08 10:42:29;;;;;;;0.70;0.70;;;;;;;2.87;71.52;98864.50;5089022;28;20047;-70
2024/02/08 10:45:05;;;;;;;0.50;0.50;;;;;;;2.24;72.10;98866.25;5089092;28;20547;-72
2024/02/08 10:47:39;;;;;;;2.78;0.80;;;;;;;1.72;72.06;98876.41;5106657;28;20537;-71
2024/02/08 10:50:19;;;;;;;3.50;1.15;;;;;;;1.40;74.30;98872.03;5089096;28;20016;-71
2024/02/08 10:52:48;;;;;;;0.52;0.52;;;;;;;1.25;74.19;98872.81;5106995;28;20094;-70
2024/02/08 10:55:18;;;;;;;4.03;1.20;;;;;;;1.07;74.54;98882.09;5107087;28;20496;-71
2024/02/08 11:06:26;;;;;;;0.88;0.88;;;;;;;0.13;74.65;98870.31;5044164;28;20025;-73
2024/02/08 11:09:09;;;;;;;0.50;0.50;;;;;;;0.08;75.48;98866.91;5044065;28;20033;-74
2024/02/08 11:11:37;;;;;;;0.50;0.50;;;;;;;0.15;76.23;98872.88;5043913;28;20436;-73
2024/02/08 11:14:08;;;;;;;1.38;1.23;;;;;;;0.11;76.34;98864.38;5044005;28;20029;-73
2024/02/08 11:16:37;;;;;;;0.68;0.68;;;;;;;0.18;77.05;98876.34;5043805;28;20049;-73
2024/02/08 11:19:04;;;;;;;0.60;0.60;;;;;;;0.21;77.04;98870.38;5027341;28;20052;-74
2024/02/08 11:21:52;;;;;;;0.50;0.50;;;;;;;0.14;76.36;98872.06;5043991;28;20037;-72
2024/02/08 11:24:27;;;;;;;0.50;0.50;;;;;;;0.14;76.04;98869.50;5043319;28;20437;-72
2024/02/08 11:26:57;;;;;;;0.60;0.60;;;;;;;0.03;75.77;98873.66;5043082;28;20139;-72
2024/02/08 11:29:26;;;;;;;0.95;0.95;;;;;;;-0.09;76.31;98876.91;5026966;28;20096;-71
2024/02/08 11:31:55;;;;;;;0.60;0.60;;;;;;;-0.12;77.09;98875.19;5043427;28;20029;-69
2024/02/08 11:34:24;;;;;;;0.50;0.50;;;;;;;-0.01;77.70;98868.50;5043665;28;20187;-71
2024/02/08 11:36:52;;;;;;;1.38;0.80;;;;;;;0.06;77.46;98866.03;5044002;28;20029;-71
2024/02/08 11:39:27;;;;;;;0.80;0.80;;;;;;;0.01;76.59;98865.13;5055136;28;20032;-70
2024/02/08 11:41:57;;;;;;;7.38;1.27;;;;;;;-0.16;77.03;98874.31;5105783;28;20023;-70
2024/02/08 11:44:25;;;;;;;0.65;0.65;;;;;;;-0.03;77.89;98887.19;5109219;28;20041;-70
2024/02/08 11:46:58;;;;;;;0.50;0.50;;;;;;;0.04;78.13;98870.25;5089542;28;20024;-70
2024/02/08 11:49:35;;;;;;;0.60;0.60;;;;;;;0.07;77.28;98878.78;5087641;28;20115;-71
2024/02/08 11:52:11;;;;;;;0.50;0.50;;;;;;;0.11;78.05;98890.72;5088635;23;20055;-65
2024/02/08 11:54:40;;;;;;;0.60;0.60;;;;;;;0.20;78.63;98889.09;5104537;28;20648;-64
2024/02/08 11:57:09;;;;;;;0.50;0.50;;;;;;;0.28;79.12;98887.50;5105223;28;20092;-64
2024/02/08 11:59:36;;;;;;;0.63;0.63;;;;;;;0.35;77.84;98879.03;5105810;28;20016;-65
2024/02/08 12:02:07;;;;;;;0.82;0.82;;;;;;;0.21;77.99;98878.91;5105597;28;20020;-64
2024/02/08 12:04:34;;;;;;;0.70;0.70;;;;;;;0.24;78.05;98884.03;5105757;28;20035;-65
2024/02/08 12:07:04;;;;;;;0.60;0.60;;;;;;;0.13;77.25;98885.63;5105696;28;20031;-65
2024/02/08 12:09:31;;;;;;;0.50;0.50;;;;;;;0.05;78.03;98884.72;5087398;28;20047;-64
2024/02/08 12:11:57;;;;;;;0.55;0.55;;;;;;;0.07;78.03;98889.00;5105336;28;20028;-65
2024/02/08 12:14:26;;;;;;;0.60;0.60;;;;;;;-0.01;78.01;98893.16;5087444;28;20020;-65
2024/02/08 12:16:57;;;;;;;0.50;0.50;;;;;;;-0.06;78.31;98903.31;5087228;28;20028;-65
2024/02/08 12:19:24;;;;;;;0.60;0.60;;;;;;;-0.02;78.29;98901.66;5105847;28;20039;-65
2024/02/08 12:21:57;;;;;;;0.50;0.50;;;;;;;-0.05;78.76;98911.84;5105489;28;20097;-66
2024/02/08 12:24:26;;;;;;;0.85;0.85;;;;;;;0.06;78.84;98914.50;5105739;28;20024;-65
2024/02/08 12:26:54;;;;;;;0.50;0.50;;;;;;;0.04;79.07;98913.63;5087124;28;20096;-64
2024/02/08 12:29:24;;;;;;;1.00;0.95;;;;;;;-0.07;78.36;98896.53;5105465;28;20079;-65
2024/02/08 12:31:54;;;;;;;0.77;0.77;;;;;;;-0.07;78.09;98906.72;5105247;28;20096;-65
2024/02/08 12:34:31;;;;;;;0.85;0.85;;;;;;;-0.22;77.38;98914.22;5087422;28;20047;-64
2024/02/08 12:36:59;;;;;;;1.02;1.02;;;;;;;-0.31;77.69;98914.94;5105369;28;20054;-64
2024/02/08 12:39:25;;;;;;;0.57;0.57;;;;;;;-0.47;77.88;98917.31;5087363;28;20084;-64
2024/02/08 12:41:50;;;;;;;1.02;1.02;;;;;;;-0.61;78.35;98924.81;5105014;28;20028;-65
2024/02/08 12:44:20;;;;;;;0.50;0.50;;;;;;;-0.64;78.71;98929.88;5105313;28;20077;-64
2024/02/08 12:46:49;;;;;;;0.60;0.60;;;;;;;-0.73;78.57;98919.50;5105273;28;20117;-65
2024/02/08 12:49:15;;;;;;;0.60;0.60;;;;;;;-0.80;78.40;98914.34;5105347;28;20020;-65
2024/02/08 12:51:41;;;;;;;0.60;0.60;;;;;;;-0.91;79.22;98918.44;5100275;28;20052;-65
2024/02/08 12:54:07;;;;;;;0.50;0.50;;;;;;;-0.88;79.60;98921.03;5085189;28;20031;-65
2024/02/08 12:56:36;;;;;;;0.50;0.50;;;;;;;-0.80;79.98;98927.09;5066601;28;20468;-66
2024/02/08 12:59:04;;;;;;;0.88;0.88;;;;;;;-0.75;80.02;98924.59;5085031;28;20024;-65
2024/02/08 13:01:44;;;;;;;0.60;0.60;;;;;;;-0.64;80.42;98929.88;5085082;28;20021;-66
2024/02/08 13:04:16;;;;;;;0.60;0.60;;;;;;;-0.58;80.00;98929.06;5084872;28;20023;-65
2024/02/08 13:06:41;;;;;;;0.70;0.70;;;;;;;-0.54;80.19;98934.22;5084788;28;20121;-65
2024/02/08 13:12:15;;;;;;;0.50;0.50;;;;;;;-0.48;80.15;98943.66;5086670;28;20067;-65
2024/02/08 13:14:50;;;;;;;0.50;0.50;;;;;;;-0.57;79.96;98939.28;5088836;28;20384;-65
2024/02/08 13:17:19;;;;;;;0.50;0.50;;;;;;;-0.51;79.93;98947.00;5070560;28;20111;-65
2024/02/08 13:19:49;;;;;;;2.63;0.98;;;;;;;-0.67;79.42;98945.13;5070635;28;20048;-65
2024/02/08 13:22:20;;;;;;;0.70;0.70;;;;;;;-0.71;80.05;98948.44;5070608;28;20097;-66
2024/02/08 13:24:48;;;;;;;0.70;0.70;;;;;;;-0.67;80.23;98951.06;5088742;28;20042;-65
2024/02/08 13:27:13;;;;;;;0.50;0.50;;;;;;;-0.62;80.50;98946.00;5088343;28;20031;-66
2024/02/08 13:29:39;;;;;;;0.60;0.60;;;;;;;-0.63;80.41;98942.63;5070479;28;20025;-65
2024/02/08 13:32:04;;;;;;;1.00;1.00;;;;;;;-0.60;80.29;98948.59;5088165;28;20028;-66
2024/02/08 13:34:30;;;;;;;0.80;0.80;;;;;;;-0.56;80.29;98941.00;5088431;28;20021;-64
2024/02/08 13:36:58;;;;;;;0.68;0.68;;;;;;;-0.55;80.39;98946.97;5088268;28;20028;-65
2024/02/08 13:39:25;;;;;;;0.68;0.68;;;;;;;-0.52;80.25;98950.41;5088559;28;20024;-65
2024/02/08 13:41:51;;;;;;;0.85;0.85;;;;;;;-0.56;79.70;98945.25;5088162;28;20073;-65
2024/02/08 13:44:20;;;;;;;0.60;0.60;;;;;;;-0.69;79.95;98949.31;5070141;28;20021;-66
2024/02/08 13:46:48;;;;;;;1.75;1.25;;;;;;;-0.71;79.93;98956.09;5088061;28;20055;-66
2024/02/08 13:49:15;;;;;;;0.50;0.50;;;;;;;-0.78;80.29;98948.34;5087998;28;20016;-66
2024/02/08 13:51:44;;;;;;;0.98;0.98;;;;;;;-0.77;80.21;98956.88;5087985;28;20051;-65
2024/02/08 13:54:12;;;;;;;2.80;1.67;;;;;;;-0.81;79.95;98957.63;5088058;28;20025;-64
2024/02/08 13:56:40;;;;;;;0.77;0.77;;;;;;;-0.89;80.21;98958.41;5069522;28;20034;-64